Time;durP1;ratioP1;P1;durP2;ratioP2;P2;SDS_P1;SDS_P2;PMS_P1;PMS_P2;Temp;Humidity;BMP_temperature;BMP_pressure;BME280_temperature;BME280_humidity;BME280_pressure;Samples;Min_cycle;Max_cycle;Signal;HPM_P1;HPM_P2
2023/11/24 00:01:01;;;;;;;5.57;3.28;;;7.80;99.90;;;;;;4663432;30;20160;-46
2023/11/24 00:03:28;;;;;;;4.57;2.45;;;7.80;99.90;;;;;;4661929;30;20108;-53
2023/11/24 00:05:56;;;;;;;5.63;2.80;;;7.80;99.90;;;;;;4661044;30;20069;-50
2023/11/24 00:08:23;;;;;;;4.43;2.53;;;7.80;99.90;;;;;;4660514;30;20058;-50
2023/11/24 00:10:50;;;;;;;4.80;2.75;;;7.80;99.90;;;;;;4661550;30;20046;-51
2023/11/24 00:13:18;;;;;;;4.45;2.70;;;7.80;99.90;;;;;;4661940;30;20062;-48
2023/11/24 00:15:46;;;;;;;3.97;2.30;;;7.90;99.90;;;;;;4662878;30;20129;-49
2023/11/24 00:18:14;;;;;;;4.25;2.42;;;7.90;99.90;;;;;;4662410;30;20073;-51
2023/11/24 00:20:41;;;;;;;3.92;2.45;;;7.90;99.90;;;;;;4661500;30;20522;-48
2023/11/24 00:23:08;;;;;;;3.33;2.08;;;8.00;99.90;;;;;;4662405;30;20061;-48
2023/11/24 00:25:35;;;;;;;3.45;2.17;;;8.00;99.90;;;;;;4662562;30;20447;-50
2023/11/24 00:28:04;;;;;;;3.97;2.33;;;8.00;99.90;;;;;;4662292;30;20581;-45
2023/11/24 00:30:32;;;;;;;5.18;2.28;;;8.00;99.90;;;;;;4661669;30;20105;-52
2023/11/24 00:33:01;;;;;;;3.22;2.13;;;8.00;99.90;;;;;;4649973;30;20063;-51
2023/11/24 00:35:31;;;;;;;4.78;2.35;;;8.00;99.90;;;;;;4661835;30;20050;-50
2023/11/24 00:37:58;;;;;;;4.03;2.42;;;8.00;99.90;;;;;;4662051;30;20070;-49
2023/11/24 00:40:25;;;;;;;3.97;2.22;;;8.10;99.90;;;;;;4661645;30;20077;-50
2023/11/24 00:42:52;;;;;;;3.33;2.00;;;8.10;99.90;;;;;;4661126;30;20059;-45
2023/11/24 00:45:19;;;;;;;3.53;2.17;;;8.10;99.90;;;;;;4676833;24;20070;-52
2023/11/24 00:47:46;;;;;;;3.88;2.25;;;8.20;99.90;;;;;;4677863;30;20089;-49
2023/11/24 00:50:14;;;;;;;5.25;2.47;;;8.20;99.90;;;;;;4695172;30;20136;-54
2023/11/24 00:52:41;;;;;;;4.15;2.55;;;8.20;99.90;;;;;;4695161;30;20350;-47
2023/11/24 00:55:08;;;;;;;4.13;2.40;;;8.20;99.90;;;;;;4695801;30;20120;-49
2023/11/24 00:57:36;;;;;;;3.63;2.42;;;8.20;99.90;;;;;;4697764;30;20160;-50
2023/11/24 01:00:06;;;;;;;4.50;2.60;;;8.20;99.90;;;;;;4697427;30;20505;-48
2023/11/24 01:02:36;;;;;;;4.65;2.60;;;8.20;99.90;;;;;;4682251;30;20177;-46
2023/11/24 01:05:05;;;;;;;4.63;2.75;;;8.30;99.90;;;;;;4697673;30;20054;-50
2023/11/24 01:07:32;;;;;;;4.18;2.70;;;8.30;99.90;;;;;;4681309;30;20061;-51
2023/11/24 01:09:59;;;;;;;4.65;2.70;;;8.30;99.90;;;;;;4697072;30;20083;-47
2023/11/24 01:12:26;;;;;;;6.22;2.80;;;8.30;99.90;;;;;;4677118;30;20053;-50
2023/11/24 01:14:54;;;;;;;5.07;3.17;;;8.30;99.90;;;;;;4686194;30;20057;-51
2023/11/24 01:17:22;;;;;;;5.15;2.90;;;8.30;99.90;;;;;;4696624;30;20065;-51
2023/11/24 01:19:49;;;;;;;6.57;3.10;;;8.30;99.90;;;;;;4696953;30;20067;-49
2023/11/24 01:22:16;;;;;;;5.72;2.90;;;8.30;99.90;;;;;;4696915;30;20579;-49
2023/11/24 01:24:44;;;;;;;5.22;3.20;;;8.30;99.90;;;;;;4680868;30;20111;-47
2023/11/24 01:27:12;;;;;;;5.00;3.10;;;8.30;99.90;;;;;;4695591;30;20049;-53
2023/11/24 01:29:39;;;;;;;4.45;2.92;;;8.30;99.90;;;;;;4680261;30;20524;-52
2023/11/24 01:32:06;;;;;;;5.57;2.85;;;8.30;99.90;;;;;;4697909;30;20491;-51
2023/11/24 01:34:33;;;;;;;4.72;3.15;;;8.40;99.90;;;;;;4695408;30;20368;-47
2023/11/24 01:37:00;;;;;;;4.95;3.15;;;8.40;99.90;;;;;;4697173;30;20065;-50
2023/11/24 01:39:27;;;;;;;5.43;3.10;;;8.40;99.90;;;;;;4696129;30;20073;-47
2023/11/24 01:41:56;;;;;;;4.47;2.88;;;8.40;99.90;;;;;;4696185;30;20211;-51
2023/11/24 01:44:23;;;;;;;6.25;3.10;;;8.40;99.90;;;;;;4695918;30;20074;-48
2023/11/24 01:46:50;;;;;;;4.40;2.83;;;8.50;99.90;;;;;;4696258;30;20115;-43
2023/11/24 01:49:17;;;;;;;5.35;3.10;;;8.50;99.90;;;;;;4696314;30;20057;-48
2023/11/24 01:51:45;;;;;;;5.78;3.55;;;8.50;99.90;;;;;;4695612;30;20099;-45
2023/11/24 01:54:12;;;;;;;5.25;3.38;;;8.50;99.90;;;;;;4696670;30;20053;-55
2023/11/24 01:56:40;;;;;;;4.97;3.15;;;8.50;99.90;;;;;;4695978;30;20053;-53
2023/11/24 01:59:09;;;;;;;5.28;3.03;;;8.50;99.90;;;;;;4696434;30;20053;-54
2023/11/24 02:01:37;;;;;;;4.57;2.97;;;8.50;99.90;;;;;;4679099;30;20064;-47
2023/11/24 02:04:04;;;;;;;3.83;2.53;;;8.50;99.90;;;;;;4677162;30;20520;-56
2023/11/24 02:06:32;;;;;;;4.25;2.80;;;8.50;99.90;;;;;;4690863;30;20064;-50
2023/11/24 02:08:59;;;;;;;4.70;3.13;;;8.50;99.90;;;;;;4693401;30;20085;-54
2023/11/24 02:11:26;;;;;;;3.75;2.30;;;8.50;99.90;;;;;;4691476;30;20486;-52
2023/11/24 02:13:54;;;;;;;5.32;2.47;;;8.50;99.90;;;;;;4685088;30;20053;-51
2023/11/24 02:16:22;;;;;;;4.30;2.63;;;8.50;99.90;;;;;;4700873;30;20058;-45
2023/11/24 02:18:49;;;;;;;4.57;2.60;;;8.50;99.90;;;;;;4678492;30;20140;-48
2023/11/24 02:21:18;;;;;;;4.10;2.40;;;8.50;99.90;;;;;;4676861;30;20061;-47
2023/11/24 02:23:45;;;;;;;3.55;2.10;;;8.40;99.90;;;;;;4695120;30;20062;-52
2023/11/24 02:26:14;;;;;;;3.55;2.30;;;8.40;99.90;;;;;;4676670;30;20057;-49
2023/11/24 02:28:42;;;;;;;4.30;2.40;;;8.40;99.90;;;;;;4681871;30;20050;-46
2023/11/24 02:31:09;;;;;;;3.45;2.20;;;8.40;99.90;;;;;;4690935;30;20054;-46
2023/11/24 02:33:40;;;;;;;3.50;2.10;;;8.30;99.90;;;;;;4690249;30;20050;-49
2023/11/24 02:36:08;;;;;;;4.72;2.05;;;8.30;99.90;;;;;;4698431;30;20516;-47
2023/11/24 02:38:36;;;;;;;3.08;1.95;;;8.40;99.90;;;;;;4676691;30;20108;-47
2023/11/24 02:41:04;;;;;;;3.70;2.15;;;8.30;99.90;;;;;;4675955;30;20144;-53
2023/11/24 02:43:32;;;;;;;3.67;2.20;;;8.40;99.90;;;;;;4691626;30;20061;-49
2023/11/24 02:46:00;;;;;;;3.67;1.88;;;8.40;99.90;;;;;;4692944;30;20054;-49
2023/11/24 02:48:27;;;;;;;3.47;2.25;;;8.30;99.90;;;;;;4691027;30;20472;-50
2023/11/24 02:50:54;;;;;;;4.15;2.47;;;8.40;99.90;;;;;;4692701;30;20060;-51
2023/11/24 02:53:21;;;;;;;3.60;2.17;;;8.30;99.90;;;;;;4675396;30;20050;-49
2023/11/24 02:55:48;;;;;;;4.38;2.10;;;8.30;99.90;;;;;;4691360;30;20149;-45
2023/11/24 02:58:15;;;;;;;4.30;2.20;;;8.30;99.90;;;;;;4686748;30;20058;-53
2023/11/24 03:00:42;;;;;;;4.90;2.55;;;8.30;99.90;;;;;;4693833;30;20146;-49
2023/11/24 03:03:09;;;;;;;3.58;2.20;;;8.30;99.90;;;;;;4674242;30;20137;-47
2023/11/24 03:05:36;;;;;;;4.13;2.03;;;8.40;99.90;;;;;;4691573;30;20123;-47
2023/11/24 03:08:03;;;;;;;3.47;2.15;;;8.40;99.90;;;;;;4690310;30;20061;-51
2023/11/24 03:10:30;;;;;;;3.85;2.38;;;8.30;99.90;;;;;;4690353;30;20424;-47
2023/11/24 03:12:57;;;;;;;4.40;2.40;;;8.30;99.90;;;;;;4693570;30;20454;-46
2023/11/24 03:15:25;;;;;;;6.63;2.08;;;8.20;99.90;;;;;;4691546;30;20137;-51
2023/11/24 03:17:52;;;;;;;3.33;1.52;;;7.90;99.90;;;;;;4692194;30;20074;-46
2023/11/24 03:20:21;;;;;;;3.05;1.30;;;7.60;99.90;;;;;;4691362;30;20141;-52
2023/11/24 03:22:48;;;;;;;4.53;1.63;;;7.40;99.90;;;;;;4678853;30;20060;-53
2023/11/24 03:25:15;;;;;;;2.70;1.40;;;7.20;99.90;;;;;;4670413;30;20073;-47
2023/11/24 03:27:42;;;;;;;2.33;1.15;;;7.00;99.90;;;;;;4688670;30;20440;-50
2023/11/24 03:30:10;;;;;;;2.35;1.20;;;7.00;99.90;;;;;;4690993;30;20409;-50
2023/11/24 03:32:37;;;;;;;2.00;1.02;;;6.90;99.90;;;;;;4677555;30;20100;-49
2023/11/24 03:35:05;;;;;;;1.95;1.10;;;6.80;99.90;;;;;;4675640;30;20045;-51
2023/11/24 03:37:32;;;;;;;1.70;1.10;;;6.70;99.90;;;;;;4689911;30;20078;-51
2023/11/24 03:39:59;;;;;;;2.13;1.00;;;6.60;99.90;;;;;;4674649;30;20061;-46
2023/11/24 03:42:27;;;;;;;1.27;0.85;;;6.60;99.90;;;;;;4690080;30;20042;-46
2023/11/24 03:44:54;;;;;;;2.45;1.05;;;6.50;99.90;;;;;;4691300;30;20420;-50
2023/11/24 03:47:22;;;;;;;1.23;0.90;;;6.50;99.90;;;;;;4691458;30;20535;-46
2023/11/24 03:49:49;;;;;;;2.92;0.90;;;6.40;99.90;;;;;;4690640;30;20156;-45
2023/11/24 03:52:16;;;;;;;2.95;1.00;;;6.40;99.90;;;;;;4676793;30;20062;-48
2023/11/24 03:54:44;;;;;;;1.98;1.17;;;6.40;99.90;;;;;;4669937;30;20755;-47
2023/11/24 03:57:11;;;;;;;3.80;1.00;;;6.30;99.90;;;;;;4691879;30;20064;-46
2023/11/24 03:59:38;;;;;;;4.40;0.98;;;6.30;99.90;;;;;;4690847;30;20062;-47
2023/11/24 04:02:05;;;;;;;2.83;1.00;;;6.30;99.90;;;;;;4693194;30;20061;-49
2023/11/24 04:04:32;;;;;;;4.15;1.05;;;6.30;99.90;;;;;;4675501;30;20061;-45
2023/11/24 04:06:59;;;;;;;2.20;0.90;;;6.30;99.90;;;;;;4692062;30;20489;-49
2023/11/24 04:09:26;;;;;;;1.35;0.82;;;6.30;99.90;;;;;;4689646;30;20038;-48
2023/11/24 04:11:54;;;;;;;2.42;1.00;;;6.20;99.90;;;;;;4674858;30;20361;-45
2023/11/24 04:14:21;;;;;;;3.65;1.00;;;6.20;99.90;;;;;;4697248;30;20065;-47
2023/11/24 04:16:48;;;;;;;0.98;0.70;;;6.20;99.90;;;;;;4692743;30;20092;-48
2023/11/24 04:19:16;;;;;;;4.82;0.98;;;6.20;99.90;;;;;;4689366;30;20053;-51
2023/11/24 04:21:43;;;;;;;4.90;1.20;;;6.20;99.90;;;;;;4676306;30;20561;-48
2023/11/24 04:24:10;;;;;;;5.18;0.93;;;6.20;99.90;;;;;;4690531;30;20061;-47
2023/11/24 04:26:37;;;;;;;2.53;0.90;;;6.20;99.90;;;;;;4691212;30;20524;-46
2023/11/24 04:29:04;;;;;;;6.20;1.13;;;6.20;99.90;;;;;;4691814;30;20053;-49
2023/11/24 04:31:31;;;;;;;2.35;0.98;;;6.20;99.90;;;;;;4689366;30;20046;-48
2023/11/24 04:33:58;;;;;;;3.53;0.95;;;6.20;99.90;;;;;;4691280;30;20067;-50
2023/11/24 04:36:25;;;;;;;4.55;1.20;;;6.20;99.90;;;;;;4689664;30;20068;-48
2023/11/24 04:38:52;;;;;;;5.00;1.60;;;6.20;99.90;;;;;;4690507;30;20061;-50
2023/11/24 04:41:19;;;;;;;3.58;1.10;;;6.30;99.90;;;;;;4688540;30;20057;-49
2023/11/24 04:43:46;;;;;;;3.58;1.30;;;6.30;99.90;;;;;;4690433;30;20135;-50
2023/11/24 04:46:13;;;;;;;4.15;1.50;;;6.30;99.90;;;;;;4689492;30;20057;-48
2023/11/24 04:48:41;;;;;;;4.88;1.25;;;6.30;99.90;;;;;;4690800;30;20612;-54
2023/11/24 04:51:08;;;;;;;3.33;1.38;;;6.30;99.90;;;;;;4675310;30;20054;-48
2023/11/24 04:53:35;;;;;;;9.25;2.97;;;6.30;99.90;;;;;;4688574;30;20096;-51
2023/11/24 04:56:06;;;;;;;4.97;1.75;;;6.30;99.90;;;;;;4688505;30;20050;-48
2023/11/24 04:58:33;;;;;;;4.60;1.60;;;6.30;99.90;;;;;;4690728;30;20061;-47
2023/11/24 05:01:00;;;;;;;5.57;1.73;;;6.30;99.90;;;;;;4691083;30;20073;-45
2023/11/24 05:03:27;;;;;;;5.20;1.38;;;6.30;99.90;;;;;;4688297;30;20055;-50
2023/11/24 05:05:54;;;;;;;5.38;1.50;;;6.30;99.90;;;;;;4691474;30;20223;-50
2023/11/24 05:08:21;;;;;;;2.92;1.40;;;6.40;99.90;;;;;;4689110;30;20089;-45
2023/11/24 05:10:48;;;;;;;4.80;1.52;;;6.40;99.90;;;;;;4689635;30;20054;-49
2023/11/24 05:13:15;;;;;;;3.08;1.23;;;6.40;99.90;;;;;;4693069;30;20106;-50
2023/11/24 05:15:42;;;;;;;5.63;1.52;;;6.40;99.90;;;;;;4679823;30;20069;-51
2023/11/24 05:18:09;;;;;;;3.47;1.35;;;6.40;99.90;;;;;;4691495;30;20139;-53
2023/11/24 05:20:36;;;;;;;3.58;1.55;;;6.40;99.90;;;;;;4675590;30;20443;-47
2023/11/24 05:23:03;;;;;;;6.03;1.65;;;6.40;99.90;;;;;;4691153;30;20054;-48
2023/11/24 05:25:30;;;;;;;5.30;1.48;;;6.40;99.90;;;;;;4688320;30;20066;-49
2023/11/24 05:27:57;;;;;;;5.03;1.70;;;6.40;99.90;;;;;;4690521;30;20057;-46
2023/11/24 05:30:24;;;;;;;6.53;1.58;;;6.40;99.90;;;;;;4690072;30;20050;-56
2023/11/24 05:32:52;;;;;;;5.53;1.90;;;6.40;99.90;;;;;;4692307;30;20081;-52
2023/11/24 05:35:19;;;;;;;5.72;1.70;;;6.50;99.90;;;;;;4689662;30;20057;-49
2023/11/24 05:37:46;;;;;;;3.50;1.40;;;6.40;99.90;;;;;;4692537;30;20194;-45
2023/11/24 05:40:15;;;;;;;7.25;1.90;;;6.40;99.90;;;;;;4683363;30;20061;-47
2023/11/24 05:42:42;;;;;;;7.20;1.67;;;6.30;99.90;;;;;;4695456;30;20061;-51
2023/11/24 05:45:10;;;;;;;5.45;1.52;;;6.30;99.90;;;;;;4696800;30;20092;-46
2023/11/24 05:47:37;;;;;;;5.88;2.00;;;6.30;99.90;;;;;;4695191;30;20045;-48
2023/11/24 05:50:07;;;;;;;3.28;1.40;;;6.30;99.90;;;;;;4696433;30;20054;-47
2023/11/24 05:52:34;;;;;;;4.22;1.40;;;6.20;99.90;;;;;;4696358;30;20045;-51
2023/11/24 05:55:02;;;;;;;4.28;1.33;;;6.30;99.90;;;;;;4693160;30;20060;-51
2023/11/24 05:57:29;;;;;;;3.78;1.33;;;6.30;99.90;;;;;;4695057;30;20068;-58
2023/11/24 05:59:56;;;;;;;4.95;1.50;;;6.20;99.90;;;;;;4695937;30;20469;-47
2023/11/24 06:02:24;;;;;;;6.68;1.70;;;6.20;99.90;;;;;;4680241;30;20127;-49
2023/11/24 06:04:51;;;;;;;7.30;1.83;;;6.20;99.90;;;;;;4696917;30;20411;-46
2023/11/24 06:07:19;;;;;;;5.63;1.70;;;6.10;99.90;;;;;;4696034;30;20082;-54
2023/11/24 06:09:46;;;;;;;3.80;1.60;;;6.10;99.90;;;;;;4696169;30;20050;-50
2023/11/24 06:12:13;;;;;;;4.90;1.60;;;6.00;99.90;;;;;;4692946;30;20057;-52
2023/11/24 06:14:40;;;;;;;7.70;1.90;;;6.00;99.90;;;;;;4702907;30;20524;-50
2023/11/24 06:17:08;;;;;;;4.43;1.60;;;5.90;99.90;;;;;;4696166;30;20053;-49
2023/11/24 06:19:35;;;;;;;4.85;1.65;;;5.80;99.90;;;;;;4693987;30;20527;-51
2023/11/24 06:22:02;;;;;;;6.03;1.67;;;5.80;99.90;;;;;;4696316;30;20555;-50
2023/11/24 06:24:29;;;;;;;7.00;2.53;;;5.80;99.90;;;;;;4694425;30;20453;-50
2023/11/24 06:26:56;;;;;;;6.75;1.80;;;5.70;99.90;;;;;;4696368;30;20053;-51
2023/11/24 06:29:24;;;;;;;3.95;1.60;;;5.70;99.90;;;;;;4695749;30;20057;-49
2023/11/24 06:31:52;;;;;;;6.13;2.03;;;5.60;99.90;;;;;;4696438;30;20483;-51
2023/11/24 06:34:20;;;;;;;6.13;1.83;;;5.50;99.90;;;;;;4695881;30;20057;-50
2023/11/24 06:36:49;;;;;;;8.15;1.80;;;5.50;99.90;;;;;;4695403;30;20483;-49
2023/11/24 06:39:19;;;;;;;6.43;1.77;;;5.50;99.90;;;;;;4695811;30;20060;-48
2023/11/24 06:41:47;;;;;;;5.93;1.95;;;5.50;99.90;;;;;;4690180;30;20440;-50
2023/11/24 06:44:15;;;;;;;5.55;2.30;;;5.50;99.90;;;;;;4695130;30;20050;-49
2023/11/24 06:46:42;;;;;;;8.48;2.00;;;5.50;99.90;;;;;;4695705;30;20127;-53
2023/11/24 06:49:10;;;;;;;7.47;2.10;;;5.50;99.90;;;;;;4697291;30;20053;-51
2023/11/24 06:51:38;;;;;;;6.50;1.80;;;5.50;99.90;;;;;;4697144;30;20053;-49
2023/11/24 06:54:06;;;;;;;10.00;2.00;;;5.50;99.90;;;;;;4693930;30;20049;-57
2023/11/24 06:56:33;;;;;;;6.40;1.88;;;5.40;99.90;;;;;;4691666;30;20038;-53
2023/11/24 06:59:00;;;;;;;7.43;1.90;;;5.50;99.90;;;;;;4695114;30;20482;-53
2023/11/24 07:01:31;;;;;;;6.60;2.20;;;5.40;99.90;;;;;;4694787;30;20053;-46
2023/11/24 07:03:59;;;;;;;9.70;1.90;;;5.40;99.90;;;;;;4693999;30;20624;-48
2023/11/24 07:06:27;;;;;;;7.80;1.98;;;5.40;99.90;;;;;;4694014;30;20066;-49
2023/11/24 07:08:54;;;;;;;5.30;1.90;;;5.30;99.90;;;;;;4680776;30;20080;-51
2023/11/24 07:11:22;;;;;;;10.50;2.55;;;5.30;99.90;;;;;;4695536;30;20099;-47
2023/11/24 07:13:51;;;;;;;9.27;2.30;;;5.40;99.90;;;;;;4700842;30;20079;-49
2023/11/24 07:16:18;;;;;;;13.88;2.90;;;5.30;99.90;;;;;;4694374;30;20104;-47
2023/11/24 07:18:45;;;;;;;9.68;2.70;;;5.30;99.90;;;;;;4694353;30;20049;-54
2023/11/24 07:21:12;;;;;;;10.52;2.45;;;5.20;99.90;;;;;;4692532;30;20053;-47
2023/11/24 07:23:40;;;;;;;4.78;2.03;;;5.20;99.90;;;;;;4694202;30;20057;-55
2023/11/24 07:26:07;;;;;;;8.45;2.20;;;5.20;99.90;;;;;;4694380;30;20057;-48
2023/11/24 07:28:38;;;;;;;7.45;2.20;;;5.20;99.90;;;;;;4693302;30;20080;-48
2023/11/24 07:31:04;;;;;;;8.05;2.50;;;5.20;99.90;;;;;;4694624;30;20053;-52
2023/11/24 07:33:32;;;;;;;8.25;3.72;;;5.20;99.90;;;;;;4695729;30;20061;-49
2023/11/24 07:36:00;;;;;;;7.70;2.50;;;5.20;99.90;;;;;;4694502;30;20053;-47
2023/11/24 07:38:27;;;;;;;7.28;2.50;;;5.20;99.90;;;;;;4693525;30;20269;-53
2023/11/24 07:40:54;;;;;;;10.23;2.92;;;5.20;99.90;;;;;;4694996;30;20092;-50
2023/11/24 07:43:21;;;;;;;11.73;2.75;;;5.40;99.90;;;;;;4694389;30;20057;-49
2023/11/24 07:45:50;;;;;;;9.35;2.90;;;5.40;99.90;;;;;;4694946;30;20053;-48
2023/11/24 07:48:18;;;;;;;7.13;2.72;;;5.50;99.90;;;;;;4694477;30;20419;-48
2023/11/24 07:50:46;;;;;;;8.40;2.40;;;5.60;99.90;;;;;;4691906;30;20115;-49
2023/11/24 07:53:14;;;;;;;14.25;3.15;;;5.60;99.90;;;;;;4694572;30;20056;-46
2023/11/24 07:55:41;;;;;;;12.63;3.33;;;5.70;99.90;;;;;;4694220;30;20086;-49
2023/11/24 07:58:08;;;;;;;10.55;2.53;;;5.70;99.90;;;;;;4694867;30;20057;-47
2023/11/24 08:00:36;;;;;;;12.00;2.55;;;5.80;99.90;;;;;;4694274;30;20523;-49
2023/11/24 08:03:04;;;;;;;8.73;2.50;;;5.80;99.90;;;;;;4694734;30;20065;-45
2023/11/24 08:05:31;;;;;;;8.73;2.70;;;5.80;99.90;;;;;;4693672;30;20053;-51
2023/11/24 08:08:00;;;;;;;13.23;2.90;;;5.90;99.90;;;;;;4695698;30;20056;-52
2023/11/24 08:10:27;;;;;;;12.85;3.25;;;6.00;99.90;;;;;;4694728;30;20096;-54
2023/11/24 08:12:54;;;;;;;9.70;2.92;;;6.00;99.90;;;;;;4695633;30;20049;-53
2023/11/24 08:15:23;;;;;;;8.57;2.92;;;6.10;99.90;;;;;;4699182;30;20070;-49
2023/11/24 08:17:50;;;;;;;13.98;3.38;;;6.20;99.90;;;;;;4694660;30;20436;-54
2023/11/24 08:20:19;;;;;;;10.85;3.10;;;6.20;99.90;;;;;;4692073;30;20057;-55
2023/11/24 08:22:45;;;;;;;11.38;3.63;;;6.30;99.90;;;;;;4692119;30;20057;-47
2023/11/24 08:25:12;;;;;;;12.30;2.90;;;6.40;99.90;;;;;;4691195;30;20061;-47
2023/11/24 08:27:40;;;;;;;11.77;3.22;;;6.40;99.90;;;;;;4693110;30;20061;-54
2023/11/24 08:30:10;;;;;;;16.30;2.78;;;6.50;99.90;;;;;;4691894;30;20578;-56
2023/11/24 08:32:39;;;;;;;7.80;2.72;;;6.60;99.90;;;;;;4693900;30;20096;-50
2023/11/24 08:35:11;;;;;;;10.50;3.00;;;6.70;99.90;;;;;;4692242;30;20050;-52
2023/11/24 08:37:38;;;;;;;10.05;2.78;;;6.70;99.90;;;;;;4691405;30;20480;-50
2023/11/24 08:40:10;;;;;;;6.88;2.55;;;6.80;99.90;;;;;;4692462;30;20146;-50
2023/11/24 08:42:38;;;;;;;10.43;2.58;;;6.90;99.90;;;;;;4691439;30;20046;-52
2023/11/24 08:45:06;;;;;;;7.65;2.65;;;6.90;99.90;;;;;;4694007;30;20053;-55
2023/11/24 08:47:33;;;;;;;9.30;3.22;;;6.90;99.90;;;;;;4691541;30;20050;-50
2023/11/24 08:50:03;;;;;;;7.35;2.17;;;7.00;99.90;;;;;;4690828;30;20124;-48
2023/11/24 08:52:30;;;;;;;7.40;2.42;;;6.90;99.90;;;;;;4689564;30;20058;-49
2023/11/24 08:54:57;;;;;;;13.35;2.72;;;6.80;99.90;;;;;;4692565;30;20049;-49
2023/11/24 08:57:24;;;;;;;8.60;2.22;;;6.70;99.90;;;;;;4689884;30;20057;-52
2023/11/24 08:59:51;;;;;;;11.07;3.13;;;6.60;99.90;;;;;;4692194;30;20054;-46
2023/11/24 09:02:18;;;;;;;9.75;2.60;;;6.60;99.90;;;;;;4690485;30;20057;-50
2023/11/24 09:04:46;;;;;;;7.40;2.53;;;6.60;99.90;;;;;;4686077;30;20125;-53
2023/11/24 09:07:13;;;;;;;9.48;2.47;;;6.50;99.90;;;;;;4691074;30;20065;-48
2023/11/24 09:09:41;;;;;;;9.27;3.35;;;6.60;99.90;;;;;;4689589;30;20077;-50
2023/11/24 09:12:08;;;;;;;8.40;2.63;;;6.70;99.90;;;;;;4692760;30;20460;-48
2023/11/24 09:14:38;;;;;;;9.93;3.15;;;6.70;99.90;;;;;;4696531;30;20112;-53
2023/11/24 09:17:06;;;;;;;11.27;2.72;;;6.80;99.90;;;;;;4698753;30;20566;-48
2023/11/24 09:19:33;;;;;;;7.05;2.20;;;6.80;99.90;;;;;;4692410;30;20390;-49
2023/11/24 09:22:03;;;;;;;7.05;2.53;;;6.80;99.90;;;;;;4694699;30;20122;-49
2023/11/24 09:24:30;;;;;;;7.93;2.50;;;6.80;99.90;;;;;;4693765;30;20088;-54
2023/11/24 09:26:57;;;;;;;8.38;3.20;;;6.80;99.90;;;;;;4695407;30;20528;-53
2023/11/24 09:29:25;;;;;;;9.15;3.00;;;6.80;99.90;;;;;;4693505;30;20061;-49
2023/11/24 09:31:53;;;;;;;6.78;2.45;;;6.90;99.90;;;;;;4691500;30;20053;-49
2023/11/24 09:34:20;;;;;;;6.43;2.55;;;7.00;99.90;;;;;;4694961;30;20073;-48
2023/11/24 09:36:51;;;;;;;12.98;2.90;;;7.10;99.90;;;;;;4695068;30;20128;-49
2023/11/24 09:39:19;;;;;;;8.40;3.00;;;7.10;99.90;;;;;;4694409;30;20062;-52
2023/11/24 09:41:49;;;;;;;5.93;2.42;;;7.10;99.90;;;;;;4693710;30;20058;-49
2023/11/24 09:44:16;;;;;;;8.60;2.72;;;7.00;99.90;;;;;;4693599;30;20082;-52
2023/11/24 09:46:43;;;;;;;7.47;2.80;;;7.10;99.90;;;;;;4695150;30;20528;-50
2023/11/24 09:49:20;;;;;;;10.85;3.20;;;7.10;99.90;;;;;;4678435;30;20060;-48
2023/11/24 09:51:47;;;;;;;10.07;2.65;;;6.90;99.90;;;;;;4690706;30;20063;-53
2023/11/24 09:54:17;;;;;;;11.45;3.42;;;7.00;99.90;;;;;;4694232;30;20576;-48
2023/11/24 09:56:45;;;;;;;7.43;2.45;;;7.00;99.90;;;;;;4693631;30;20050;-51
2023/11/24 09:59:13;;;;;;;8.18;2.50;;;6.90;99.90;;;;;;4696057;30;20053;-52
2023/11/24 10:01:40;;;;;;;8.45;3.50;;;6.80;99.90;;;;;;4696309;30;20053;-48
2023/11/24 10:04:09;;;;;;;9.55;2.80;;;6.80;99.90;;;;;;4692452;30;20531;-53
2023/11/24 10:06:42;;;;;;;11.02;3.22;;;6.70;99.90;;;;;;4694239;30;20376;-51
2023/11/24 10:09:14;;;;;;;9.13;3.03;;;6.70;99.90;;;;;;4695488;30;20444;-47
2023/11/24 10:11:41;;;;;;;8.95;3.00;;;6.50;99.90;;;;;;4693269;30;21984;-51
2023/11/24 10:14:11;;;;;;;11.20;2.88;;;6.40;99.90;;;;;;4701987;30;20049;-50
2023/11/24 10:16:41;;;;;;;7.97;3.25;;;6.40;99.90;;;;;;4693594;30;20053;-51
2023/11/24 10:19:14;;;;;;;10.73;2.60;;;6.30;99.90;;;;;;4693648;30;20520;-49
2023/11/24 10:21:50;;;;;;;9.38;3.08;;;6.30;99.90;;;;;;4693687;30;20060;-51
2023/11/24 10:24:17;;;;;;;9.63;3.30;;;6.40;99.90;;;;;;4694395;30;20520;-46
2023/11/24 10:26:45;;;;;;;10.00;2.88;;;6.30;99.90;;;;;;4694185;30;20053;-50
2023/11/24 10:29:14;;;;;;;11.45;4.03;;;6.20;99.90;;;;;;4694442;30;20136;-51
2023/11/24 10:31:42;;;;;;;12.02;3.30;;;6.10;99.90;;;;;;4692917;30;20092;-55
2023/11/24 10:34:09;;;;;;;9.93;3.85;;;6.00;99.90;;;;;;4693795;30;20085;-49
2023/11/24 10:36:37;;;;;;;10.63;3.30;;;5.90;99.90;;;;;;4692738;30;20049;-55
2023/11/24 10:39:08;;;;;;;11.93;2.55;;;5.70;99.90;;;;;;4693549;30;20092;-50
2023/11/24 10:41:42;;;;;;;5.03;2.07;;;5.50;99.90;;;;;;4691324;30;20065;-52
2023/11/24 10:44:13;;;;;;;7.03;2.15;;;4.90;99.90;;;;;;4694187;30;20428;-50
2023/11/24 10:46:45;;;;;;;5.38;1.63;;;4.50;99.90;;;;;;4692359;30;20065;-47
2023/11/24 10:49:24;;;;;;;5.15;1.63;;;4.40;99.90;;;;;;4694835;30;20477;-48
2023/11/24 10:52:03;;;;;;;4.13;1.67;;;4.20;99.90;;;;;;4691920;30;20054;-49
2023/11/24 10:54:38;;;;;;;6.80;2.03;;;4.10;99.90;;;;;;4691665;30;20135;-50
2023/11/24 10:57:06;;;;;;;4.90;1.98;;;4.10;99.90;;;;;;4694566;30;20054;-48
2023/11/24 10:59:37;;;;;;;3.85;1.63;;;4.20;99.90;;;;;;4677116;30;20517;-47
2023/11/24 11:02:08;;;;;;;4.30;1.70;;;4.30;99.90;;;;;;4694690;30;20078;-48
2023/11/24 11:04:41;;;;;;;4.50;1.40;;;4.60;99.90;;;;;;4691962;30;20387;-47
2023/11/24 11:07:26;;;;;;;3.83;1.52;;;5.30;99.90;;;;;;4693128;30;20061;-48
2023/11/24 11:09:58;;;;;;;3.97;1.60;;;5.80;99.90;;;;;;4692097;30;20154;-48
2023/11/24 11:12:36;;;;;;;4.18;2.13;;;6.30;99.90;;;;;;4692598;30;20065;-48
2023/11/24 11:15:06;;;;;;;3.92;1.55;;;6.60;99.90;;;;;;4682737;30;20049;-49
2023/11/24 11:17:33;;;;;;;2.97;1.50;;;7.20;99.90;;;;;;4690464;30;20053;-50
2023/11/24 11:20:06;;;;;;;3.28;1.55;;;7.50;99.90;;;;;;4692710;30;20061;-52
2023/11/24 11:22:36;;;;;;;4.75;2.42;;;7.70;99.90;;;;;;4678025;30;20109;-53
2023/11/24 11:25:14;;;;;;;3.75;1.42;;;7.70;99.90;;;;;;4694339;30;20057;-55
2023/11/24 11:27:46;;;;;;;3.72;1.67;;;7.20;99.90;;;;;;4694427;30;20053;-50
2023/11/24 11:30:22;;;;;;;;;;;6.90;99.90;;;;;;4694842;30;20176;-49
2023/11/24 11:33:22;;;;;;;3.05;1.73;;;7.00;99.90;;;;;;4690778;30;19977;-51
2023/11/24 11:35:58;;;;;;;5.10;1.80;;;6.70;99.90;;;;;;4692838;30;20064;-49
2023/11/24 11:38:45;;;;;;;4.53;1.98;;;7.00;99.90;;;;;;4690877;30;20443;-50
2023/11/24 11:41:37;;;;;;;5.90;1.90;;;7.10;99.90;;;;;;4691786;30;20730;-44
2023/11/24 11:44:22;;;;;;;3.78;1.85;;;7.10;99.90;;;;;;4692796;30;20085;-45
2023/11/24 11:47:10;;;;;;;9.20;2.70;;;7.40;99.90;;;;;;4691547;30;20512;-50
2023/11/24 11:49:40;;;;;;;5.15;2.00;;;7.70;99.90;;;;;;4692682;30;20410;-47
2023/11/24 11:52:10;;;;;;;6.50;2.92;;;8.20;99.90;;;;;;4693736;30;20083;-52
2023/11/24 11:54:39;;;;;;;5.40;2.40;;;8.50;99.90;;;;;;4691773;30;20575;-53
2023/11/24 11:57:07;;;;;;;7.47;2.50;;;8.80;99.90;;;;;;4677427;30;20459;-50
2023/11/24 11:59:34;;;;;;;6.95;2.30;;;8.90;99.90;;;;;;4691462;30;20611;-48
2023/11/24 12:02:03;;;;;;;9.10;2.30;;;8.70;99.90;;;;;;4676952;30;20117;-47
2023/11/24 12:04:32;;;;;;;10.05;3.00;;;8.40;99.90;;;;;;4692230;30;20147;-46
2023/11/24 12:07:00;;;;;;;9.18;3.22;;;7.90;99.90;;;;;;4691439;30;20345;-47
2023/11/24 12:09:29;;;;;;;7.22;2.22;;;7.50;99.90;;;;;;4690723;30;20756;-48
2023/11/24 12:12:00;;;;;;;7.68;2.40;;;7.20;99.90;;;;;;4692166;30;20168;-53
2023/11/24 12:14:27;;;;;;;6.43;2.28;;;7.00;99.90;;;;;;4697861;30;20050;-46
2023/11/24 12:16:54;;;;;;;7.90;2.53;;;6.80;99.90;;;;;;4691539;30;20077;-49
2023/11/24 12:19:22;;;;;;;5.90;2.50;;;6.80;99.90;;;;;;4692206;30;20077;-46
2023/11/24 12:21:50;;;;;;;7.78;2.45;;;6.60;99.90;;;;;;4692384;30;20077;-48
2023/11/24 12:24:20;;;;;;;5.45;2.13;;;6.40;99.90;;;;;;4692353;30;20065;-43
2023/11/24 12:26:47;;;;;;;4.65;1.58;;;6.20;99.90;;;;;;4694569;30;20065;-50
2023/11/24 12:29:15;;;;;;;6.28;2.97;;;6.00;99.90;;;;;;4691102;30;20524;-60
2023/11/24 12:31:42;;;;;;;4.65;2.03;;;5.60;99.90;;;;;;4692926;30;20061;-48
2023/11/24 12:34:20;;;;;;;2.85;1.55;;;5.30;99.90;;;;;;4692729;30;20065;-48
2023/11/24 12:36:48;;;;;;;6.47;2.08;;;5.10;99.90;;;;;;4686837;30;20524;-48
2023/11/24 12:39:16;;;;;;;4.05;1.55;;;4.90;99.90;;;;;;4691298;30;20504;-46
2023/11/24 12:41:44;;;;;;;3.60;1.48;;;4.80;99.90;;;;;;4692927;30;20128;-43
2023/11/24 12:44:11;;;;;;;4.55;1.27;;;4.70;99.90;;;;;;4691488;30;20049;-52
2023/11/24 12:46:41;;;;;;;3.38;1.50;;;4.50;99.90;;;;;;4697497;24;20058;-47
2023/11/24 12:49:09;;;;;;;2.67;1.58;;;4.30;99.90;;;;;;4676156;30;20094;-42
2023/11/24 12:51:41;;;;;;;2.90;1.10;;;4.00;99.90;;;;;;4674778;30;20065;-44
2023/11/24 12:54:08;;;;;;;1.92;0.98;;;4.20;99.90;;;;;;4677397;30;20050;-46
2023/11/24 12:56:35;;;;;;;2.97;1.10;;;4.30;99.90;;;;;;4674686;30;20529;-48
2023/11/24 12:59:04;;;;;;;2.13;1.20;;;4.40;99.90;;;;;;4676295;30;20063;-50
2023/11/24 13:01:31;;;;;;;2.83;1.30;;;4.30;99.90;;;;;;4676009;30;20174;-45